sensor_id;sensor_type;location;lat;lon;timestamp;P1;durP1;ratioP1;P2;durP2;ratioP2
4527;SDS011;62320;51.520;6.818;2023-04-10T00:06:04;20.40;;;9.47;;
4527;SDS011;62320;51.520;6.818;2023-04-10T00:16:07;17.60;;;8.63;;
4527;SDS011;62320;51.520;6.818;2023-04-10T00:26:09;18.65;;;8.65;;
4527;SDS011;62320;51.520;6.818;2023-04-10T00:36:10;18.87;;;8.77;;
4527;SDS011;62320;51.520;6.818;2023-04-10T00:46:12;18.03;;;8.20;;
4527;SDS011;62320;51.520;6.818;2023-04-10T00:56:14;17.23;;;8.75;;
4527;SDS011;62320;51.520;6.818;2023-04-10T01:16:37;17.57;;;8.17;;
4527;SDS011;62320;51.520;6.818;2023-04-10T01:37:49;18.55;;;8.32;;
4527;SDS011;62320;51.520;6.818;2023-04-10T01:47:53;16.13;;;7.63;;
4527;SDS011;62320;51.520;6.818;2023-04-10T01:57:56;15.67;;;6.90;;
4527;SDS011;62320;51.520;6.818;2023-04-10T02:08:04;13.07;;;6.10;;
4527;SDS011;62320;51.520;6.818;2023-04-10T02:18:15;13.03;;;5.90;;
4527;SDS011;62320;51.520;6.818;2023-04-10T02:28:18;13.13;;;6.20;;
4527;SDS011;62320;51.520;6.818;2023-04-10T02:38:20;13.88;;;6.25;;
4527;SDS011;62320;51.520;6.818;2023-04-10T02:48:22;14.30;;;6.10;;
4527;SDS011;62320;51.520;6.818;2023-04-10T02:58:23;15.50;;;6.27;;
4527;SDS011;62320;51.520;6.818;2023-04-10T03:08:25;15.35;;;6.93;;
4527;SDS011;62320;51.520;6.818;2023-04-10T03:18:26;12.95;;;6.30;;
4527;SDS011;62320;51.520;6.818;2023-04-10T03:28:27;15.37;;;6.37;;
4527;SDS011;62320;51.520;6.818;2023-04-10T03:38:29;15.33;;;6.57;;
4527;SDS011;62320;51.520;6.818;2023-04-10T03:48:31;12.77;;;5.28;;
4527;SDS011;62320;51.520;6.818;2023-04-10T03:58:33;12.30;;;5.80;;
4527;SDS011;62320;51.520;6.818;2023-04-10T04:08:34;12.33;;;5.67;;
4527;SDS011;62320;51.520;6.818;2023-04-10T04:18:38;13.52;;;5.85;;
4527;SDS011;62320;51.520;6.818;2023-04-10T04:28:40;13.67;;;5.80;;
4527;SDS011;62320;51.520;6.818;2023-04-10T04:38:41;13.47;;;5.47;;
4527;SDS011;62320;51.520;6.818;2023-04-10T04:48:43;11.85;;;5.28;;
4527;SDS011;62320;51.520;6.818;2023-04-10T04:58:44;12.23;;;5.30;;
4527;SDS011;62320;51.520;6.818;2023-04-10T05:08:46;10.37;;;5.27;;
4527;SDS011;62320;51.520;6.818;2023-04-10T05:18:47;11.67;;;5.03;;
4527;SDS011;62320;51.520;6.818;2023-04-10T05:28:48;12.60;;;5.47;;
4527;SDS011;62320;51.520;6.818;2023-04-10T05:38:50;12.53;;;5.47;;
4527;SDS011;62320;51.520;6.818;2023-04-10T05:48:52;12.03;;;5.33;;
4527;SDS011;62320;51.520;6.818;2023-04-10T05:58:54;12.82;;;5.28;;
4527;SDS011;62320;51.520;6.818;2023-04-10T06:08:56;14.43;;;5.73;;
4527;SDS011;62320;51.520;6.818;2023-04-10T06:18:57;12.97;;;5.77;;
4527;SDS011;62320;51.520;6.818;2023-04-10T06:28:59;12.65;;;5.68;;
4527;SDS011;62320;51.520;6.818;2023-04-10T06:39:00;12.20;;;5.40;;
4527;SDS011;62320;51.520;6.818;2023-04-10T06:49:02;12.00;;;5.27;;
4527;SDS011;62320;51.520;6.818;2023-04-10T06:59:04;11.40;;;5.03;;
4527;SDS011;62320;51.520;6.818;2023-04-10T07:09:06;10.13;;;4.68;;
4527;SDS011;62320;51.520;6.818;2023-04-10T07:19:08;9.93;;;4.80;;
4527;SDS011;62320;51.520;6.818;2023-04-10T07:29:09;10.33;;;5.13;;
4527;SDS011;62320;51.520;6.818;2023-04-10T07:39:11;9.98;;;4.72;;
4527;SDS011;62320;51.520;6.818;2023-04-10T07:49:13;9.77;;;4.60;;
4527;SDS011;62320;51.520;6.818;2023-04-10T07:59:14;9.60;;;4.87;;
4527;SDS011;62320;51.520;6.818;2023-04-10T08:09:16;8.35;;;4.00;;
4527;SDS011;62320;51.520;6.818;2023-04-10T08:19:17;8.80;;;4.85;;
4527;SDS011;62320;51.520;6.818;2023-04-10T08:29:19;8.00;;;4.50;;
4527;SDS011;62320;51.520;6.818;2023-04-10T08:39:20;8.53;;;4.30;;
4527;SDS011;62320;51.520;6.818;2023-04-10T08:49:23;9.30;;;4.60;;
4527;SDS011;62320;51.520;6.818;2023-04-10T08:59:46;7.77;;;3.87;;
4527;SDS011;62320;51.520;6.818;2023-04-10T09:09:48;7.73;;;3.60;;
4527;SDS011;62320;51.520;6.818;2023-04-10T09:19:53;8.00;;;4.40;;
4527;SDS011;62320;51.520;6.818;2023-04-10T09:29:56;7.00;;;3.50;;
4527;SDS011;62320;51.520;6.818;2023-04-10T09:39:58;7.40;;;3.47;;
4527;SDS011;62320;51.520;6.818;2023-04-10T09:50:00;7.53;;;3.67;;
4527;SDS011;62320;51.520;6.818;2023-04-10T10:00:02;6.63;;;3.17;;
4527;SDS011;62320;51.520;6.818;2023-04-10T10:10:06;8.47;;;3.70;;
4527;SDS011;62320;51.520;6.818;2023-04-10T10:20:12;6.50;;;3.00;;
4527;SDS011;62320;51.520;6.818;2023-04-10T10:30:17;7.65;;;3.90;;
4527;SDS011;62320;51.520;6.818;2023-04-10T10:40:50;6.50;;;3.30;;
4527;SDS011;62320;51.520;6.818;2023-04-10T10:51:00;6.83;;;3.10;;
4527;SDS011;62320;51.520;6.818;2023-04-10T11:01:04;6.43;;;3.08;;
4527;SDS011;62320;51.520;6.818;2023-04-10T11:21:18;5.67;;;2.90;;
4527;SDS011;62320;51.520;6.818;2023-04-10T11:31:21;6.93;;;3.30;;
4527;SDS011;62320;51.520;6.818;2023-04-10T11:41:33;6.38;;;3.17;;
4527;SDS011;62320;51.520;6.818;2023-04-10T11:51:36;6.10;;;2.70;;
4527;SDS011;62320;51.520;6.818;2023-04-10T12:01:39;6.57;;;2.90;;
4527;SDS011;62320;51.520;6.818;2023-04-10T12:12:02;7.10;;;2.83;;
4527;SDS011;62320;51.520;6.818;2023-04-10T12:22:05;5.90;;;2.60;;
4527;SDS011;62320;51.520;6.818;2023-04-10T12:32:08;6.37;;;2.90;;
4527;SDS011;62320;51.520;6.818;2023-04-10T12:42:16;6.28;;;2.60;;
4527;SDS011;62320;51.520;6.818;2023-04-10T12:52:21;5.87;;;2.40;;
4527;SDS011;62320;51.520;6.818;2023-04-10T13:02:23;6.27;;;2.73;;
4527;SDS011;62320;51.520;6.818;2023-04-10T13:12:25;6.28;;;2.80;;
4527;SDS011;62320;51.520;6.818;2023-04-10T13:22:27;5.47;;;2.55;;
4527;SDS011;62320;51.520;6.818;2023-04-10T13:32:28;7.23;;;3.27;;
4527;SDS011;62320;51.520;6.818;2023-04-10T13:42:30;6.40;;;2.50;;
4527;SDS011;62320;51.520;6.818;2023-04-10T13:52:31;6.25;;;2.60;;
4527;SDS011;62320;51.520;6.818;2023-04-10T14:02:33;5.33;;;2.43;;
4527;SDS011;62320;51.520;6.818;2023-04-10T14:12:34;6.73;;;2.37;;
4527;SDS011;62320;51.520;6.818;2023-04-10T14:22:38;6.60;;;2.50;;
4527;SDS011;62320;51.520;6.818;2023-04-10T14:32:39;5.83;;;2.40;;
4527;SDS011;62320;51.520;6.818;2023-04-10T14:42:41;5.53;;;2.43;;
4527;SDS011;62320;51.520;6.818;2023-04-10T14:52:43;4.18;;;1.70;;
4527;SDS011;62320;51.520;6.818;2023-04-10T15:02:44;5.03;;;1.73;;
4527;SDS011;62320;51.520;6.818;2023-04-10T15:12:48;5.30;;;2.30;;
4527;SDS011;62320;51.520;6.818;2023-04-10T15:22:49;6.27;;;2.10;;
4527;SDS011;62320;51.520;6.818;2023-04-10T15:32:51;4.95;;;2.15;;
4527;SDS011;62320;51.520;6.818;2023-04-10T15:42:52;5.60;;;2.77;;
4527;SDS011;62320;51.520;6.818;2023-04-10T15:52:54;4.90;;;2.20;;
4527;SDS011;62320;51.520;6.818;2023-04-10T16:02:55;5.90;;;2.40;;
4527;SDS011;62320;51.520;6.818;2023-04-10T16:12:57;5.50;;;2.37;;
4527;SDS011;62320;51.520;6.818;2023-04-10T16:23:04;5.30;;;2.30;;
4527;SDS011;62320;51.520;6.818;2023-04-10T16:33:05;5.70;;;2.40;;
4527;SDS011;62320;51.520;6.818;2023-04-10T16:43:07;5.28;;;2.20;;
4527;SDS011;62320;51.520;6.818;2023-04-10T16:53:08;6.13;;;2.40;;
4527;SDS011;62320;51.520;6.818;2023-04-10T17:03:10;6.33;;;2.67;;
4527;SDS011;62320;51.520;6.818;2023-04-10T17:13:11;7.93;;;2.70;;
4527;SDS011;62320;51.520;6.818;2023-04-10T17:23:13;6.90;;;2.80;;
4527;SDS011;62320;51.520;6.818;2023-04-10T17:33:14;6.33;;;2.70;;
4527;SDS011;62320;51.520;6.818;2023-04-10T17:43:16;6.05;;;2.85;;
4527;SDS011;62320;51.520;6.818;2023-04-10T17:53:18;18.63;;;8.30;;
4527;SDS011;62320;51.520;6.818;2023-04-10T18:03:19;6.97;;;3.40;;
4527;SDS011;62320;51.520;6.818;2023-04-10T18:13:21;8.82;;;4.03;;
4527;SDS011;62320;51.520;6.818;2023-04-10T18:23:22;8.30;;;3.42;;
4527;SDS011;62320;51.520;6.818;2023-04-10T18:33:25;9.93;;;4.90;;
4527;SDS011;62320;51.520;6.818;2023-04-10T18:43:27;10.77;;;5.20;;
4527;SDS011;62320;51.520;6.818;2023-04-10T18:53:28;10.93;;;4.95;;
4527;SDS011;62320;51.520;6.818;2023-04-10T19:03:30;13.37;;;4.27;;
4527;SDS011;62320;51.520;6.818;2023-04-10T19:13:32;8.20;;;2.90;;
4527;SDS011;62320;51.520;6.818;2023-04-10T19:23:33;5.07;;;1.52;;
4527;SDS011;62320;51.520;6.818;2023-04-10T19:33:35;6.20;;;2.27;;
4527;SDS011;62320;51.520;6.818;2023-04-10T19:43:36;5.93;;;1.97;;
4527;SDS011;62320;51.520;6.818;2023-04-10T19:53:38;5.88;;;2.20;;
4527;SDS011;62320;51.520;6.818;2023-04-10T20:03:40;5.97;;;2.22;;
4527;SDS011;62320;51.520;6.818;2023-04-10T20:13:42;5.20;;;1.80;;
4527;SDS011;62320;51.520;6.818;2023-04-10T20:23:44;4.97;;;1.53;;
4527;SDS011;62320;51.520;6.818;2023-04-10T20:33:45;5.95;;;2.08;;
4527;SDS011;62320;51.520;6.818;2023-04-10T20:43:47;7.23;;;2.20;;
4527;SDS011;62320;51.520;6.818;2023-04-10T20:53:48;8.97;;;3.60;;
4527;SDS011;62320;51.520;6.818;2023-04-10T21:03:50;9.48;;;4.10;;
4527;SDS011;62320;51.520;6.818;2023-04-10T21:13:51;5.73;;;1.53;;
4527;SDS011;62320;51.520;6.818;2023-04-10T21:23:53;5.97;;;1.60;;
4527;SDS011;62320;51.520;6.818;2023-04-10T21:33:55;7.60;;;3.00;;
4527;SDS011;62320;51.520;6.818;2023-04-10T21:43:57;13.90;;;6.10;;
4527;SDS011;62320;51.520;6.818;2023-04-10T21:54:00;5.10;;;2.00;;
4527;SDS011;62320;51.520;6.818;2023-04-10T22:04:02;4.97;;;1.50;;
4527;SDS011;62320;51.520;6.818;2023-04-10T22:14:04;4.50;;;1.20;;
4527;SDS011;62320;51.520;6.818;2023-04-10T22:24:17;5.97;;;0.87;;
4527;SDS011;62320;51.520;6.818;2023-04-10T22:34:19;4.83;;;1.50;;
4527;SDS011;62320;51.520;6.818;2023-04-10T22:44:20;4.10;;;1.27;;
4527;SDS011;62320;51.520;6.818;2023-04-10T22:54:21;3.57;;;1.00;;
4527;SDS011;62320;51.520;6.818;2023-04-10T23:04:23;4.00;;;1.13;;
4527;SDS011;62320;51.520;6.818;2023-04-10T23:14:25;5.82;;;1.70;;
4527;SDS011;62320;51.520;6.818;2023-04-10T23:24:26;7.35;;;1.67;;
4527;SDS011;62320;51.520;6.818;2023-04-10T23:34:27;7.50;;;1.50;;
4527;SDS011;62320;51.520;6.818;2023-04-10T23:44:29;7.67;;;2.00;;
4527;SDS011;62320;51.520;6.818;2023-04-10T23:54:31;6.40;;;1.52;;
